Ana Sayfa
METAR-TAF:

METAR-TAF

Havaalanları :

Munising, Michigan, Amerika Birleşik Devletleri

Enlem: 46-24N, Boylam: 086-39W, yükseklik: 187 m

Güncel hava durumu gözlemi

Rapor saat 02:56 UTC de 18 dakika önce yapıldı.
Rüzgar kuzeydan 11 kt
Sıcaklık -6°C
Nem 79%
Basınç 1030 hPa

METAR: KP53 200256Z AUTO 36011KT M06/M09 A3042 RMK AO1 SLP315 T10561089 51012

Saat: 22:14 (03:14 UTC)


TAF: eksik

4.000'den fazla havaalanı için hava durumu gözlemleri ve tahminleri (METAR ve TAF raporları).

Kullanılabilir istasyonlar harita üzerinde sarı ve kırmızı noktalarla gösterilir.

İstasyonun adını görmek için fareyi noktanın üzerinde gezdirin.

Sonrasında hava gözlem ve tahminlerini görmek için tıklayın.

Haritayı değiştirmek için: yaklaştırmak için siyah artı işaretli yeşil düğmeye ve uzaklaştırmak için de eksi işaretli düğmeye hızla tıklayın; bitişik haritalar için yeşil okları kullanın.


METAR-TAF: